Kanab, UT (84741)

1:56 AM MDT on October 26, 2014 (GMT -0600)
RAWS TELEGRAPH FLAT UT US | Change Station
CLOSE
Current Station
Personal Weather Station
Location: Kanab, UT
Elevation: 5459 ft
Nearby Weather Stations

Elev 5459 ft 37.19 °N, 112.03 °W | Updated 59 minutes ago

Clear
Clear
53 °F
Feels Like 53 °F
N
5
Wind Variable Wind from WNW
Gusts 8.0 mph

Today
High -- | Low -- °F
--% Chance of Precip.
Yesterday
High -- | Low -- °F
Precip. -- in
7:46 AM 6:37 PM
Waxing Crescent, 6% visible
Pressure 29.90 in
Visibility 10.0 miles
Clouds Clear
Dew Point 35 °F
Humidity 51%
Rainfall 0.00 in
Snow Depth Not available.
UV 0 out of 12
Pollen 4.40 out of 12
Air Quality Not available.
Flu Activity Sporadic
METAR KPGA 260653Z AUTO 16007KT 10SM CLR 17/04 A3005 RMK AO2 SLP123 T01720044 402610117

More Conditions Fewer Conditions

Pressure 29.90 in
Visibility 10.0 miles
Clouds Clear
Dew Point 35 °F
Humidity 51%
Rainfall 0.00 in
Snow Depth Not available.
UV 0 out of 12
Pollen 4.40 out of 12
Air Quality Not available.
Flu Activity Sporadic
METAR KPGA 260653Z AUTO 16007KT 10SM CLR 17/04 A3005 RMK AO2 SLP123 T01720044 402610117

More Conditions Fewer Conditions

10-Day Weather Forecast

Almanac

Astronomy

Oct. 26, 2014 Rise Set
Actual Time 7:46 AM MDT 6:37 PM MDT
Civil Twilight 7:20 AM MDT 7:04 PM MDT
Nautical Twilight 6:49 AM MDT 7:34 PM MDT
Astronomical Twilight 6:19 AM MDT 8:04 PM MDT
Moon 10:26 AM MDT 8:54 PM MDT
Length of Visible Light 11h 43m
Length of Day
10h 50m
Tomorrow will be 2m 9s shorter.
Waxing Crescent, 6% of the Moon is Illuminated
Today
Waxing Crescent
Oct 30
First Quarter
Nov 6
Full
Nov 14
Last Quarter
Nov 22
New

Today's Extremes

State Highs State Lows

Community

WunderPhotos

Upload Photos

1,765,115 photos uploaded!

Nearby

Snow Depth

Station Depth Elevation
Agua Canyon 0 in 8900 ft
Long Valley Jct 1 in 7360 ft
Webster Flat 0 in 9200 ft
Clayton Springs 0 in 10000 ft
Long Flat 0 in 8000 ft

Earthquake Activity

City Distance Mag. Time & Date
No recent earthquake activity has been reported nearby.
Minimum magnitude displayed is 2.5.

Coastal Water Temperatures

Place Temperature
No Stations Reporting

Nearby Weather Stations